หน้าหลัก
METAR-TAF:

METAR-TAF

ท่าอากาศยาน :

Chita, รัสเซีย

ละติจูด: 52-05N, ลองจิจูด: 113-29E, ความสูง: 685 ม.

การสังเกตสภาพอากาศปัจจุบัน

รายงานได้ทำขึ้นเมื่อ 22 นาทีที่แล้ว ณ เวลา 04:00 UTC
ลม 4 นอตจากตะวันตกเฉียงใต้, แปรผันระหว่างใต้/ตะวันออกเฉียงใต้ และตะวันตก
อุณหภูมิ 20°C
ความชื้น 14%
ความกดอากาศ 1018 hPa
ทัศนวิสัย 10 กม. หรือมากกว่า

METAR: UIAA 240400Z 22002MPS 160V270 9999 NSC 20/M08 Q1018 R29/CLRD70 NOSIG RMK QFE705/0940

เวลา: 13:22 (04:22 UTC)

การพยากรณ์

รายงานได้ทำขึ้นเมื่อ 2 ชั่วโมงและ 22 นาทีที่แล้ว ณ เวลา 02:00 UTC
การพยากรณ์มีผลตั้งแต่วันที่ 24 ณ เวลา 03 UTC จนถึงวันที่ 25 ณ เวลา 03 UTC
ลม 6 นอตจากตะวันออกโดยมีลมกระโชกได้ถึง16 นอต
ทัศนวิสัย 10 กม. หรือมากกว่า
มีเมฆกระจายเป็นบางส่วนที่ความสูง 4000 ฟุต, คิวมูโลนิมบัส.
ชั่วคราว
ตั้งแต่วันที่ 24 ณ เวลา 03 UTC จนถึงวันที่ 24 ณ เวลา 12 UTC
ลม 10 นอตจากใต้/ตะวันตกเฉียงใต้โดยมีลมกระโชกได้ถึง19 นอต

TAF: UIAA 240200Z 2403/2503 10003G08MPS 9999 SCT040CB TEMPO 2403/2412 20005G10MPS

สังเกตการณ์สภาพอากาศและพยากรณ์อากาศของสนามบินมากกว่า 4000 แห่ง (รายงาน METAR และ TAF).

สถานีที่ดูได้จะแสดงไว้ด้วยจุดสีเหลืองและสีแดงบนแผนที่.

เลื่อนเมาส์ไปเหนือจุดเพื่อดูชื่อสถานี.

แล้วคลิกเพื่อดูสังเกตการณ์และการพยากรณ์สภาพอากาศ.

ในการเปลี่ยนแผนที่: คลิกที่ปุ่มสีเขียวที่มีกากบาทสีดำเพื่อซูมเข้า; ที่ปุ่มสีเขียวที่มีขีดเพื่อซูมออก; หรือที่ลูกศรสีเขียวเพื่อไปยังแผนที่ที่อยู่ติดกัน.


METAR-TAF: